Time,TemperatureF,DewpointF,PressureIn,WindDirection,WindDirectionDegrees,WindSpeedMPH,WindSpeedGustMPH,Humidity,HourlyPrecipIn,Conditions,Clouds,dailyrainin,SoftwareType,DateUTC
2013-04-21 00:01:00,47.3,38.8,29.93,North,-999,-999.0,-999.0,72,-99.99,,,-99.99,meteohub,2013-04-21 04:01:00,
2013-04-21 00:02:00,47.3,38.8,29.93,North,-999,-999.0,-999.0,72,-99.99,,,-99.99,meteohub,2013-04-21 04:02:00,
2013-04-21 00:07:00,47.3,39.0,29.93,North,-999,-999.0,-999.0,73,-99.99,,,-99.99,meteohub,2013-04-21 04:07:00,
2013-04-21 00:13:00,47.1,38.7,29.93,North,-999,-999.0,-999.0,72,-99.99,,,-99.99,meteohub,2013-04-21 04:13:00,
2013-04-21 00:18:00,46.9,38.8,29.93,North,-999,-999.0,-999.0,73,-99.99,,,-99.99,meteohub,2013-04-21 04:18:00,
2013-04-21 00:23:00,46.9,39.0,29.96,North,-999,-999.0,-999.0,74,-99.99,,,-99.99,meteohub,2013-04-21 04:23:00,
2013-04-21 00:28:00,46.9,38.8,29.96,North,-999,-999.0,-999.0,73,-99.99,,,-99.99,meteohub,2013-04-21 04:28:00,
2013-04-21 00:33:00,46.8,39.0,29.96,North,-999,-999.0,-999.0,74,-99.99,,,-99.99,meteohub,2013-04-21 04:33:00,
2013-04-21 00:38:00,46.6,38.8,29.93,North,-999,-999.0,-999.0,74,-99.99,,,-99.99,meteohub,2013-04-21 04:38:00,
2013-04-21 00:43:00,46.4,38.7,29.93,North,-999,-999.0,-999.0,74,-99.99,,,-99.99,meteohub,2013-04-21 04:43:00,
2013-04-21 00:48:00,46.4,38.7,29.93,North,-999,-999.0,-999.0,74,-99.99,,,-99.99,meteohub,2013-04-21 04:48:00,
2013-04-21 00:53:00,46.2,38.8,29.96,North,-999,-999.0,-999.0,75,-99.99,,,-99.99,meteohub,2013-04-21 04:53:00,
2013-04-21 00:58:00,46.0,38.7,29.96,North,-999,-999.0,-999.0,75,-99.99,,,-99.99,meteohub,2013-04-21 04:58:00,
2013-04-21 01:04:00,45.9,38.5,29.96,North,-999,-999.0,-999.0,75,-99.99,,,-99.99,meteohub,2013-04-21 05:04:00,
2013-04-21 01:09:00,45.9,38.7,29.96,North,-999,-999.0,-999.0,76,-99.99,,,-99.99,meteohub,2013-04-21 05:09:00,
2013-04-21 01:14:00,45.9,38.7,29.96,North,-999,-999.0,-999.0,76,-99.99,,,-99.99,meteohub,2013-04-21 05:14:00,
2013-04-21 01:19:00,45.3,37.9,29.96,North,-999,-999.0,-999.0,75,-99.99,,,-99.99,meteohub,2013-04-21 05:19:00,
2013-04-21 01:24:00,45.5,38.5,29.96,North,-999,-999.0,-999.0,76,-99.99,,,-99.99,meteohub,2013-04-21 05:24:00,
2013-04-21 01:29:00,45.3,38.3,29.96,North,-999,-999.0,-999.0,76,-99.99,,,-99.99,meteohub,2013-04-21 05:29:00,
2013-04-21 01:34:00,45.1,38.1,29.96,North,-999,-999.0,-999.0,76,-99.99,,,-99.99,meteohub,2013-04-21 05:34:00,
2013-04-21 01:39:00,45.1,38.3,29.96,North,-999,-999.0,-999.0,77,-99.99,,,-99.99,meteohub,2013-04-21 05:39:00,
2013-04-21 01:44:00,44.8,37.9,29.96,North,-999,-999.0,-999.0,77,-99.99,,,-99.99,meteohub,2013-04-21 05:44:00,
2013-04-21 01:50:00,44.8,37.9,29.96,North,-999,-999.0,-999.0,77,-99.99,,,-99.99,meteohub,2013-04-21 05:50:00,
2013-04-21 01:55:00,44.8,37.9,29.96,North,-999,-999.0,-999.0,77,-99.99,,,-99.99,meteohub,2013-04-21 05:55:00,
2013-04-21 02:00:00,44.8,38.3,29.96,North,-999,-999.0,-999.0,78,-99.99,,,-99.99,meteohub,2013-04-21 06:00:00,
2013-04-21 02:05:00,44.6,38.1,29.96,North,-999,-999.0,-999.0,78,-99.99,,,-99.99,meteohub,2013-04-21 06:05:00,
2013-04-21 02:10:00,44.6,38.1,29.96,North,-999,-999.0,-999.0,78,-99.99,,,-99.99,meteohub,2013-04-21 06:10:00,
2013-04-21 02:15:00,44.4,38.3,29.96,North,-999,-999.0,-999.0,79,-99.99,,,-99.99,meteohub,2013-04-21 06:15:00,
2013-04-21 02:20:00,44.2,37.8,29.96,North,-999,-999.0,-999.0,78,-99.99,,,-99.99,meteohub,2013-04-21 06:20:00,
2013-04-21 02:25:00,44.2,38.1,29.96,North,-999,-999.0,-999.0,79,-99.99,,,-99.99,meteohub,2013-04-21 06:25:00,
2013-04-21 02:30:00,44.2,38.1,29.96,North,-999,-999.0,-999.0,79,-99.99,,,-99.99,meteohub,2013-04-21 06:30:00,
2013-04-21 02:35:00,44.2,38.1,29.96,North,-999,-999.0,-999.0,79,-99.99,,,-99.99,meteohub,2013-04-21 06:35:00,
2013-04-21 02:41:00,44.1,37.9,29.96,North,-999,-999.0,-999.0,79,-99.99,,,-99.99,meteohub,2013-04-21 06:41:00,
2013-04-21 02:46:00,43.9,37.8,29.96,North,-999,-999.0,-999.0,79,-99.99,,,-99.99,meteohub,2013-04-21 06:46:00,
2013-04-21 02:51:00,43.7,37.6,29.96,North,-999,-999.0,-999.0,79,-99.99,,,-99.99,meteohub,2013-04-21 06:51:00,
2013-04-21 02:56:00,43.7,37.9,29.96,North,-999,-999.0,-999.0,80,-99.99,,,-99.99,meteohub,2013-04-21 06:56:00,
2013-04-21 03:01:00,43.5,37.4,29.96,North,-999,-999.0,-999.0,79,-99.99,,,-99.99,meteohub,2013-04-21 07:01:00,
2013-04-21 03:06:00,43.3,37.6,29.96,North,-999,-999.0,-999.0,80,-99.99,,,-99.99,meteohub,2013-04-21 07:06:00,
2013-04-21 03:11:00,43.3,37.6,29.96,North,-999,-999.0,-999.0,80,-99.99,,,-99.99,meteohub,2013-04-21 07:11:00,
2013-04-21 03:16:00,43.2,37.8,29.96,North,-999,-999.0,-999.0,81,-99.99,,,-99.99,meteohub,2013-04-21 07:16:00,
2013-04-21 03:21:00,43.3,37.9,29.96,North,-999,-999.0,-999.0,81,-99.99,,,-99.99,meteohub,2013-04-21 07:21:00,
2013-04-21 03:26:00,43.0,37.6,29.96,North,-999,-999.0,-999.0,81,-99.99,,,-99.99,meteohub,2013-04-21 07:26:00,
2013-04-21 03:32:00,43.0,37.6,29.96,North,-999,-999.0,-999.0,81,-99.99,,,-99.99,meteohub,2013-04-21 07:32:00,
2013-04-21 03:37:00,42.8,37.4,29.96,North,-999,-999.0,-999.0,81,-99.99,,,-99.99,meteohub,2013-04-21 07:37:00,
2013-04-21 03:42:00,42.8,37.8,29.96,North,-999,-999.0,-999.0,82,-99.99,,,-99.99,meteohub,2013-04-21 07:42:00,
2013-04-21 03:47:00,42.8,37.8,29.96,North,-999,-999.0,-999.0,82,-99.99,,,-99.99,meteohub,2013-04-21 07:47:00,
2013-04-21 03:52:00,42.8,37.8,29.99,North,-999,-999.0,-999.0,82,-99.99,,,-99.99,meteohub,2013-04-21 07:52:00,
2013-04-21 03:57:00,42.8,37.8,29.99,North,-999,-999.0,-999.0,82,-99.99,,,-99.99,meteohub,2013-04-21 07:57:00,
2013-04-21 04:02:00,42.6,37.6,29.99,North,-999,-999.0,-999.0,82,-99.99,,,-99.99,meteohub,2013-04-21 08:02:00,
2013-04-21 04:07:00,42.6,37.6,29.96,North,-999,-999.0,-999.0,82,-99.99,,,-99.99,meteohub,2013-04-21 08:07:00,
2013-04-21 04:12:00,42.4,37.4,29.96,North,-999,-999.0,-999.0,82,-99.99,,,-99.99,meteohub,2013-04-21 08:12:00,
2013-04-21 04:17:00,42.4,37.4,29.96,North,-999,-999.0,-999.0,82,-99.99,,,-99.99,meteohub,2013-04-21 08:17:00,
2013-04-21 04:22:00,42.4,37.6,29.96,North,-999,-999.0,-999.0,83,-99.99,,,-99.99,meteohub,2013-04-21 08:22:00,
2013-04-21 04:27:00,42.3,37.2,29.96,North,-999,-999.0,-999.0,82,-99.99,,,-99.99,meteohub,2013-04-21 08:27:00,
2013-04-21 04:32:00,42.1,37.0,29.96,North,-999,-999.0,-999.0,82,-99.99,,,-99.99,meteohub,2013-04-21 08:32:00,
2013-04-21 04:37:00,42.1,37.0,29.99,North,-999,-999.0,-999.0,82,-99.99,,,-99.99,meteohub,2013-04-21 08:37:00,
2013-04-21 04:42:00,42.1,37.2,29.99,North,-999,-999.0,-999.0,83,-99.99,,,-99.99,meteohub,2013-04-21 08:42:00,
2013-04-21 04:47:00,42.1,37.2,29.99,North,-999,-999.0,-999.0,83,-99.99,,,-99.99,meteohub,2013-04-21 08:47:00,
2013-04-21 04:52:00,41.9,37.0,29.99,North,-999,-999.0,-999.0,83,-99.99,,,-99.99,meteohub,2013-04-21 08:52:00,
2013-04-21 04:57:00,41.9,37.0,29.99,North,-999,-999.0,-999.0,83,-99.99,,,-99.99,meteohub,2013-04-21 08:57:00,
2013-04-21 05:02:00,41.9,37.0,29.99,North,-999,-999.0,-999.0,83,-99.99,,,-99.99,meteohub,2013-04-21 09:02:00,
2013-04-21 05:07:00,41.9,37.0,29.99,North,-999,-999.0,-999.0,83,-99.99,,,-99.99,meteohub,2013-04-21 09:07:00,
2013-04-21 05:12:00,41.9,37.0,29.99,North,-999,-999.0,-999.0,83,-99.99,,,-99.99,meteohub,2013-04-21 09:12:00,
2013-04-21 05:17:00,41.9,37.4,29.99,North,-999,-999.0,-999.0,84,-99.99,,,-99.99,meteohub,2013-04-21 09:17:00,
2013-04-21 05:22:00,41.7,37.0,29.99,North,-999,-999.0,-999.0,83,-99.99,,,-99.99,meteohub,2013-04-21 09:22:00,
2013-04-21 05:27:00,41.7,37.2,29.99,North,-999,-999.0,-999.0,84,-99.99,,,-99.99,meteohub,2013-04-21 09:27:00,
2013-04-21 05:32:00,41.7,37.0,29.99,North,-999,-999.0,-999.0,83,-99.99,,,-99.99,meteohub,2013-04-21 09:32:00,
2013-04-21 05:37:00,41.7,37.2,29.99,North,-999,-999.0,-999.0,84,-99.99,,,-99.99,meteohub,2013-04-21 09:37:00,
2013-04-21 05:42:00,41.9,37.4,29.99,North,-999,-999.0,-999.0,84,-99.99,,,-99.99,meteohub,2013-04-21 09:42:00,
2013-04-21 05:47:00,42.3,37.8,29.99,North,-999,-999.0,-999.0,84,-99.99,,,-99.99,meteohub,2013-04-21 09:47:00,
2013-04-21 05:52:00,42.3,37.8,29.99,North,-999,-999.0,-999.0,84,-99.99,,,-99.99,meteohub,2013-04-21 09:52:00,
2013-04-21 05:57:00,42.4,37.9,29.99,North,-999,-999.0,-999.0,84,-99.99,,,-99.99,meteohub,2013-04-21 09:57:00,
2013-04-21 06:02:00,42.6,38.1,29.99,North,-999,-999.0,-999.0,84,-99.99,,,-99.99,meteohub,2013-04-21 10:02:00,
2013-04-21 06:07:00,42.6,37.8,30.01,North,-999,-999.0,-999.0,83,-99.99,,,-99.99,meteohub,2013-04-21 10:07:00,
2013-04-21 06:12:00,42.6,37.8,30.01,North,-999,-999.0,-999.0,83,-99.99,,,-99.99,meteohub,2013-04-21 10:12:00,
2013-04-21 06:17:00,42.8,37.8,30.01,North,-999,-999.0,-999.0,82,-99.99,,,-99.99,meteohub,2013-04-21 10:17:00,
2013-04-21 06:22:00,42.8,37.8,30.01,North,-999,-999.0,-999.0,82,-99.99,,,-99.99,meteohub,2013-04-21 10:22:00,
2013-04-21 06:27:00,42.8,37.8,30.01,North,-999,-999.0,-999.0,82,-99.99,,,-99.99,meteohub,2013-04-21 10:27:00,
2013-04-21 06:32:00,42.8,37.8,30.01,North,-999,-999.0,-999.0,82,-99.99,,,-99.99,meteohub,2013-04-21 10:32:00,
2013-04-21 06:37:00,43.0,37.9,30.01,North,-999,-999.0,-999.0,82,-99.99,,,-99.99,meteohub,2013-04-21 10:37:00,
2013-04-21 06:42:00,43.0,37.9,30.01,North,-999,-999.0,-999.0,82,-99.99,,,-99.99,meteohub,2013-04-21 10:42:00,
2013-04-21 06:47:00,43.0,37.6,30.01,North,-999,-999.0,-999.0,81,-99.99,,,-99.99,meteohub,2013-04-21 10:47:00,
2013-04-21 06:52:00,43.3,37.9,30.04,North,-999,-999.0,-999.0,81,-99.99,,,-99.99,meteohub,2013-04-21 10:52:00,
2013-04-21 06:57:00,43.3,37.9,30.04,North,-999,-999.0,-999.0,81,-99.99,,,-99.99,meteohub,2013-04-21 10:57:00,
2013-04-21 07:02:00,43.5,38.1,30.04,North,-999,-999.0,-999.0,81,-99.99,,,-99.99,meteohub,2013-04-21 11:02:00,
2013-04-21 07:07:00,43.9,38.1,30.04,North,-999,-999.0,-999.0,80,-99.99,,,-99.99,meteohub,2013-04-21 11:07:00,
2013-04-21 07:12:00,44.1,38.3,30.04,North,-999,-999.0,-999.0,80,-99.99,,,-99.99,meteohub,2013-04-21 11:12:00,
2013-04-21 07:17:00,44.2,38.5,30.04,North,-999,-999.0,-999.0,80,-99.99,,,-99.99,meteohub,2013-04-21 11:17:00,
2013-04-21 07:22:00,44.6,38.1,30.04,North,-999,-999.0,-999.0,78,-99.99,,,-99.99,meteohub,2013-04-21 11:22:00,
2013-04-21 07:27:00,45.0,38.5,30.04,North,-999,-999.0,-999.0,78,-99.99,,,-99.99,meteohub,2013-04-21 11:27:00,
2013-04-21 07:32:00,45.3,38.5,30.04,North,-999,-999.0,-999.0,77,-99.99,,,-99.99,meteohub,2013-04-21 11:32:00,
2013-04-21 07:37:00,45.7,38.5,30.04,North,-999,-999.0,-999.0,76,-99.99,,,-99.99,meteohub,2013-04-21 11:37:00,
2013-04-21 07:42:00,46.0,38.8,30.04,North,-999,-999.0,-999.0,76,-99.99,,,-99.99,meteohub,2013-04-21 11:42:00,
2013-04-21 07:47:00,46.2,39.0,30.04,North,-999,-999.0,-999.0,76,-99.99,,,-99.99,meteohub,2013-04-21 11:47:00,
2013-04-21 07:52:00,46.4,38.7,30.07,North,-999,-999.0,-999.0,74,-99.99,,,-99.99,meteohub,2013-04-21 11:52:00,
2013-04-21 07:57:00,46.6,38.8,30.07,North,-999,-999.0,-999.0,74,-99.99,,,-99.99,meteohub,2013-04-21 11:57:00,
2013-04-21 08:02:00,47.1,38.8,30.07,North,-999,-999.0,-999.0,73,-99.99,,,-99.99,meteohub,2013-04-21 12:02:00,
2013-04-21 08:07:00,47.8,39.2,30.07,North,-999,-999.0,-999.0,72,-99.99,,,-99.99,meteohub,2013-04-21 12:07:00,
2013-04-21 08:12:00,47.8,38.1,30.07,North,-999,-999.0,-999.0,69,-99.99,,,-99.99,meteohub,2013-04-21 12:12:00,
2013-04-21 08:17:00,48.0,37.9,30.07,North,-999,-999.0,-999.0,68,-99.99,,,-99.99,meteohub,2013-04-21 12:17:00,
2013-04-21 08:22:00,48.2,38.1,30.07,North,-999,-999.0,-999.0,68,-99.99,,,-99.99,meteohub,2013-04-21 12:22:00,
2013-04-21 08:27:00,48.4,37.9,30.07,North,-999,-999.0,-999.0,67,-99.99,,,-99.99,meteohub,2013-04-21 12:27:00,
2013-04-21 08:32:00,48.9,38.5,30.07,North,-999,-999.0,-999.0,67,-99.99,,,-99.99,meteohub,2013-04-21 12:32:00,
2013-04-21 08:37:00,49.3,38.1,30.07,North,-999,-999.0,-999.0,65,-99.99,,,-99.99,meteohub,2013-04-21 12:37:00,
2013-04-21 08:42:00,49.6,38.8,30.07,North,-999,-999.0,-999.0,66,-99.99,,,-99.99,meteohub,2013-04-21 12:42:00,
2013-04-21 08:47:00,50.4,38.7,30.07,North,-999,-999.0,-999.0,64,-99.99,,,-99.99,meteohub,2013-04-21 12:47:00,
2013-04-21 08:52:00,50.7,38.7,30.07,North,-999,-999.0,-999.0,63,-99.99,,,-99.99,meteohub,2013-04-21 12:52:00,
2013-04-21 08:57:00,50.7,37.4,30.07,North,-999,-999.0,-999.0,60,-99.99,,,-99.99,meteohub,2013-04-21 12:57:00,
2013-04-21 09:02:00,50.9,36.7,30.07,North,-999,-999.0,-999.0,58,-99.99,,,-99.99,meteohub,2013-04-21 13:02:00,
2013-04-21 09:07:00,51.1,36.3,30.10,North,-999,-999.0,-999.0,57,-99.99,,,-99.99,meteohub,2013-04-21 13:07:00,
2013-04-21 09:12:00,51.1,35.4,30.10,North,-999,-999.0,-999.0,55,-99.99,,,-99.99,meteohub,2013-04-21 13:12:00,
2013-04-21 09:17:00,51.3,35.6,30.10,North,-999,-999.0,-999.0,55,-99.99,,,-99.99,meteohub,2013-04-21 13:17:00,
2013-04-21 09:22:00,51.4,35.4,30.10,North,-999,-999.0,-999.0,54,-99.99,,,-99.99,meteohub,2013-04-21 13:22:00,
2013-04-21 09:27:00,51.6,34.5,30.10,North,-999,-999.0,-999.0,52,-99.99,,,-99.99,meteohub,2013-04-21 13:27:00,
2013-04-21 09:32:00,52.0,34.9,30.10,North,-999,-999.0,-999.0,52,-99.99,,,-99.99,meteohub,2013-04-21 13:32:00,
2013-04-21 09:37:00,52.0,34.0,30.10,North,-999,-999.0,-999.0,50,-99.99,,,-99.99,meteohub,2013-04-21 13:37:00,
2013-04-21 09:42:00,52.2,34.7,30.10,North,-999,-999.0,-999.0,51,-99.99,,,-99.99,meteohub,2013-04-21 13:42:00,
2013-04-21 09:47:00,52.3,34.7,30.10,North,-999,-999.0,-999.0,51,-99.99,,,-99.99,meteohub,2013-04-21 13:47:00,
2013-04-21 09:52:00,52.9,34.7,30.10,North,-999,-999.0,-999.0,50,-99.99,,,-99.99,meteohub,2013-04-21 13:52:00,
2013-04-21 09:57:00,53.2,35.1,30.10,North,-999,-999.0,-999.0,50,-99.99,,,-99.99,meteohub,2013-04-21 13:57:00,
2013-04-21 10:02:00,53.4,35.2,30.10,North,-999,-999.0,-999.0,50,-99.99,,,-99.99,meteohub,2013-04-21 14:02:00,
2013-04-21 10:07:00,54.0,36.3,30.10,North,-999,-999.0,-999.0,51,-99.99,,,-99.99,meteohub,2013-04-21 14:07:00,
2013-04-21 10:12:00,54.0,34.7,30.10,North,-999,-999.0,-999.0,48,-99.99,,,-99.99,meteohub,2013-04-21 14:12:00,
2013-04-21 10:17:00,54.3,34.5,30.10,North,-999,-999.0,-999.0,47,-99.99,,,-99.99,meteohub,2013-04-21 14:17:00,
2013-04-21 10:22:00,54.5,35.2,30.10,North,-999,-999.0,-999.0,48,-99.99,,,-99.99,meteohub,2013-04-21 14:22:00,
2013-04-21 10:27:00,54.9,36.1,30.10,North,-999,-999.0,-999.0,49,-99.99,,,-99.99,meteohub,2013-04-21 14:27:00,
2013-04-21 10:32:00,55.4,36.5,30.10,North,-999,-999.0,-999.0,49,-99.99,,,-99.99,meteohub,2013-04-21 14:32:00,
2013-04-21 10:37:00,55.4,35.1,30.10,North,-999,-999.0,-999.0,46,-99.99,,,-99.99,meteohub,2013-04-21 14:37:00,
2013-04-21 10:42:00,55.4,35.6,30.10,North,-999,-999.0,-999.0,47,-99.99,,,-99.99,meteohub,2013-04-21 14:42:00,
2013-04-21 10:47:00,55.4,34.5,30.10,North,-999,-999.0,-999.0,45,-99.99,,,-99.99,meteohub,2013-04-21 14:47:00,
2013-04-21 10:52:00,55.8,35.2,30.13,North,-999,-999.0,-999.0,46,-99.99,,,-99.99,meteohub,2013-04-21 14:52:00,
2013-04-21 10:57:00,55.9,35.4,30.13,North,-999,-999.0,-999.0,46,-99.99,,,-99.99,meteohub,2013-04-21 14:57:00,
2013-04-21 11:02:00,56.5,36.0,30.13,North,-999,-999.0,-999.0,46,-99.99,,,-99.99,meteohub,2013-04-21 15:02:00,
2013-04-21 11:07:00,56.8,35.8,30.13,North,-999,-999.0,-999.0,45,-99.99,,,-99.99,meteohub,2013-04-21 15:07:00,
2013-04-21 11:12:00,56.7,35.6,30.13,North,-999,-999.0,-999.0,45,-99.99,,,-99.99,meteohub,2013-04-21 15:12:00,
2013-04-21 11:17:00,57.2,36.1,30.13,North,-999,-999.0,-999.0,45,-99.99,,,-99.99,meteohub,2013-04-21 15:17:00,
2013-04-21 11:22:00,57.4,36.3,30.10,North,-999,-999.0,-999.0,45,-99.99,,,-99.99,meteohub,2013-04-21 15:22:00,
2013-04-21 11:27:00,57.7,36.5,30.10,North,-999,-999.0,-999.0,45,-99.99,,,-99.99,meteohub,2013-04-21 15:27:00,
2013-04-21 11:32:00,58.5,37.2,30.10,North,-999,-999.0,-999.0,45,-99.99,,,-99.99,meteohub,2013-04-21 15:32:00,
2013-04-21 11:37:00,58.8,36.3,30.13,North,-999,-999.0,-999.0,43,-99.99,,,-99.99,meteohub,2013-04-21 15:37:00,
2013-04-21 11:42:00,59.0,37.2,30.13,North,-999,-999.0,-999.0,44,-99.99,,,-99.99,meteohub,2013-04-21 15:42:00,
2013-04-21 11:47:00,59.7,37.2,30.13,North,-999,-999.0,-999.0,43,-99.99,,,-99.99,meteohub,2013-04-21 15:47:00,
2013-04-21 11:52:00,60.1,35.8,30.13,North,-999,-999.0,-999.0,40,-99.99,,,-99.99,meteohub,2013-04-21 15:52:00,
2013-04-21 11:57:00,60.3,36.5,30.13,North,-999,-999.0,-999.0,41,-99.99,,,-99.99,meteohub,2013-04-21 15:57:00,
2013-04-21 12:02:00,60.3,37.8,30.13,North,-999,-999.0,-999.0,43,-99.99,,,-99.99,meteohub,2013-04-21 16:02:00,
2013-04-21 12:07:00,60.8,37.0,30.10,North,-999,-999.0,-999.0,41,-99.99,,,-99.99,meteohub,2013-04-21 16:07:00,
2013-04-21 12:12:00,60.1,35.8,30.10,North,-999,-999.0,-999.0,40,-99.99,,,-99.99,meteohub,2013-04-21 16:12:00,
2013-04-21 12:17:00,60.4,36.0,30.10,North,-999,-999.0,-999.0,40,-99.99,,,-99.99,meteohub,2013-04-21 16:17:00,
2013-04-21 12:22:00,61.2,35.4,30.10,North,-999,-999.0,-999.0,38,-99.99,,,-99.99,meteohub,2013-04-21 16:22:00,
2013-04-21 12:27:00,61.3,36.1,30.10,North,-999,-999.0,-999.0,39,-99.99,,,-99.99,meteohub,2013-04-21 16:27:00,
2013-04-21 12:32:00,61.5,36.3,30.10,North,-999,-999.0,-999.0,39,-99.99,,,-99.99,meteohub,2013-04-21 16:32:00,
2013-04-21 12:37:00,62.2,37.6,30.10,North,-999,-999.0,-999.0,40,-99.99,,,-99.99,meteohub,2013-04-21 16:37:00,
2013-04-21 12:42:00,62.1,35.6,30.10,North,-999,-999.0,-999.0,37,-99.99,,,-99.99,meteohub,2013-04-21 16:42:00,
2013-04-21 12:47:00,61.3,35.6,30.10,North,-999,-999.0,-999.0,38,-99.99,,,-99.99,meteohub,2013-04-21 16:47:00,
2013-04-21 12:52:00,60.4,34.7,30.10,North,-999,-999.0,-999.0,38,-99.99,,,-99.99,meteohub,2013-04-21 16:52:00,
2013-04-21 12:57:00,61.9,36.7,30.10,North,-999,-999.0,-999.0,39,-99.99,,,-99.99,meteohub,2013-04-21 16:57:00,
2013-04-21 13:02:00,61.0,34.5,30.10,North,-999,-999.0,-999.0,37,-99.99,,,-99.99,meteohub,2013-04-21 17:02:00,
2013-04-21 13:07:00,61.9,36.7,30.10,North,-999,-999.0,-999.0,39,-99.99,,,-99.99,meteohub,2013-04-21 17:07:00,
2013-04-21 13:12:00,61.3,34.9,30.10,North,-999,-999.0,-999.0,37,-99.99,,,-99.99,meteohub,2013-04-21 17:12:00,
2013-04-21 13:17:00,61.5,36.3,30.10,North,-999,-999.0,-999.0,39,-99.99,,,-99.99,meteohub,2013-04-21 17:17:00,
2013-04-21 13:22:00,62.6,36.7,30.10,North,-999,-999.0,-999.0,38,-99.99,,,-99.99,meteohub,2013-04-21 17:22:00,
2013-04-21 13:27:00,63.1,35.8,30.10,North,-999,-999.0,-999.0,36,-99.99,,,-99.99,meteohub,2013-04-21 17:27:00,
2013-04-21 13:32:00,62.2,35.6,30.10,North,-999,-999.0,-999.0,37,-99.99,,,-99.99,meteohub,2013-04-21 17:32:00,
2013-04-21 13:37:00,63.5,38.1,30.10,North,-999,-999.0,-999.0,39,-99.99,,,-99.99,meteohub,2013-04-21 17:37:00,
2013-04-21 13:42:00,63.0,36.3,30.10,North,-999,-999.0,-999.0,37,-99.99,,,-99.99,meteohub,2013-04-21 17:42:00,
2013-04-21 13:47:00,63.0,36.3,30.10,North,-999,-999.0,-999.0,37,-99.99,,,-99.99,meteohub,2013-04-21 17:47:00,
2013-04-21 13:52:00,63.9,37.0,30.10,North,-999,-999.0,-999.0,37,-99.99,,,-99.99,meteohub,2013-04-21 17:52:00,
2013-04-21 13:57:00,64.2,37.4,30.10,North,-999,-999.0,-999.0,37,-99.99,,,-99.99,meteohub,2013-04-21 17:57:00,
2013-04-21 14:02:00,63.9,35.8,30.10,North,-999,-999.0,-999.0,35,-99.99,,,-99.99,meteohub,2013-04-21 18:02:00,
2013-04-21 14:07:00,63.5,36.1,30.10,North,-999,-999.0,-999.0,36,-99.99,,,-99.99,meteohub,2013-04-21 18:07:00,
2013-04-21 14:12:00,63.3,36.0,30.10,North,-999,-999.0,-999.0,36,-99.99,,,-99.99,meteohub,2013-04-21 18:12:00,
2013-04-21 14:17:00,64.0,36.5,30.10,North,-999,-999.0,-999.0,36,-99.99,,,-99.99,meteohub,2013-04-21 18:17:00,
2013-04-21 14:22:00,63.1,35.1,30.07,North,-999,-999.0,-999.0,35,-99.99,,,-99.99,meteohub,2013-04-21 18:22:00,
2013-04-21 14:27:00,64.0,36.5,30.07,North,-999,-999.0,-999.0,36,-99.99,,,-99.99,meteohub,2013-04-21 18:27:00,
2013-04-21 14:32:00,63.1,35.8,30.07,North,-999,-999.0,-999.0,36,-99.99,,,-99.99,meteohub,2013-04-21 18:32:00,
2013-04-21 14:37:00,62.4,35.2,30.07,North,-999,-999.0,-999.0,36,-99.99,,,-99.99,meteohub,2013-04-21 18:37:00,
2013-04-21 14:42:00,61.7,34.5,30.07,North,-999,-999.0,-999.0,36,-99.99,,,-99.99,meteohub,2013-04-21 18:42:00,
2013-04-21 14:47:00,61.3,34.9,30.07,North,-999,-999.0,-999.0,37,-99.99,,,-99.99,meteohub,2013-04-21 18:47:00,
2013-04-21 14:52:00,61.2,35.4,30.07,North,-999,-999.0,-999.0,38,-99.99,,,-99.99,meteohub,2013-04-21 18:52:00,
2013-04-21 14:57:00,61.5,35.1,30.07,North,-999,-999.0,-999.0,37,-99.99,,,-99.99,meteohub,2013-04-21 18:57:00,
2013-04-21 15:02:00,62.6,36.0,30.07,North,-999,-999.0,-999.0,37,-99.99,,,-99.99,meteohub,2013-04-21 19:02:00,
2013-04-21 15:07:00,63.1,35.8,30.07,North,-999,-999.0,-999.0,36,-99.99,,,-99.99,meteohub,2013-04-21 19:07:00,
2013-04-21 15:12:00,63.1,35.8,30.07,North,-999,-999.0,-999.0,36,-99.99,,,-99.99,meteohub,2013-04-21 19:12:00,
2013-04-21 15:17:00,63.3,36.7,30.07,North,-999,-999.0,-999.0,37,-99.99,,,-99.99,meteohub,2013-04-21 19:17:00,
2013-04-21 15:22:00,63.7,36.3,30.07,North,-999,-999.0,-999.0,36,-99.99,,,-99.99,meteohub,2013-04-21 19:22:00,
2013-04-21 15:27:00,62.2,35.6,30.07,North,-999,-999.0,-999.0,37,-99.99,,,-99.99,meteohub,2013-04-21 19:27:00,
2013-04-21 15:32:00,61.7,35.2,30.07,North,-999,-999.0,-999.0,37,-99.99,,,-99.99,meteohub,2013-04-21 19:32:00,
2013-04-21 15:37:00,62.8,36.1,30.07,North,-999,-999.0,-999.0,37,-99.99,,,-99.99,meteohub,2013-04-21 19:37:00,
2013-04-21 15:42:00,62.8,35.4,30.07,North,-999,-999.0,-999.0,36,-99.99,,,-99.99,meteohub,2013-04-21 19:42:00,
2013-04-21 15:47:00,62.8,35.4,30.07,North,-999,-999.0,-999.0,36,-99.99,,,-99.99,meteohub,2013-04-21 19:47:00,
2013-04-21 15:52:00,63.1,36.5,30.07,North,-999,-999.0,-999.0,37,-99.99,,,-99.99,meteohub,2013-04-21 19:52:00,
2013-04-21 15:57:00,63.0,35.6,30.07,North,-999,-999.0,-999.0,36,-99.99,,,-99.99,meteohub,2013-04-21 19:57:00,
2013-04-21 16:02:00,62.1,35.6,30.07,North,-999,-999.0,-999.0,37,-99.99,,,-99.99,meteohub,2013-04-21 20:02:00,
2013-04-21 16:07:00,61.5,35.1,30.07,North,-999,-999.0,-999.0,37,-99.99,,,-99.99,meteohub,2013-04-21 20:07:00,
2013-04-21 16:12:00,62.6,36.0,30.07,North,-999,-999.0,-999.0,37,-99.99,,,-99.99,meteohub,2013-04-21 20:12:00,
2013-04-21 16:17:00,62.2,35.6,30.07,North,-999,-999.0,-999.0,37,-99.99,,,-99.99,meteohub,2013-04-21 20:17:00,
2013-04-21 16:22:00,61.3,35.6,30.07,North,-999,-999.0,-999.0,38,-99.99,,,-99.99,meteohub,2013-04-21 20:22:00,
2013-04-21 16:27:00,62.2,37.6,30.07,North,-999,-999.0,-999.0,40,-99.99,,,-99.99,meteohub,2013-04-21 20:27:00,
2013-04-21 16:32:00,62.4,36.5,30.07,North,-999,-999.0,-999.0,38,-99.99,,,-99.99,meteohub,2013-04-21 20:32:00,
2013-04-21 16:37:00,62.2,35.6,30.07,North,-999,-999.0,-999.0,37,-99.99,,,-99.99,meteohub,2013-04-21 20:37:00,
2013-04-21 16:42:00,62.8,36.9,30.07,North,-999,-999.0,-999.0,38,-99.99,,,-99.99,meteohub,2013-04-21 20:42:00,
2013-04-21 16:47:00,62.6,36.0,30.07,North,-999,-999.0,-999.0,37,-99.99,,,-99.99,meteohub,2013-04-21 20:47:00,
2013-04-21 16:52:00,61.9,36.0,30.07,North,-999,-999.0,-999.0,38,-99.99,,,-99.99,meteohub,2013-04-21 20:52:00,
2013-04-21 16:57:00,62.1,35.6,30.07,North,-999,-999.0,-999.0,37,-99.99,,,-99.99,meteohub,2013-04-21 20:57:00,
2013-04-21 17:02:00,61.9,35.4,30.07,North,-999,-999.0,-999.0,37,-99.99,,,-99.99,meteohub,2013-04-21 21:02:00,
2013-04-21 17:07:00,61.3,34.9,30.07,North,-999,-999.0,-999.0,37,-99.99,,,-99.99,meteohub,2013-04-21 21:07:00,
2013-04-21 17:12:00,60.8,35.1,30.07,North,-999,-999.0,-999.0,38,-99.99,,,-99.99,meteohub,2013-04-21 21:12:00,
2013-04-21 17:17:00,60.4,34.7,30.07,North,-999,-999.0,-999.0,38,-99.99,,,-99.99,meteohub,2013-04-21 21:17:00,
2013-04-21 17:22:00,60.6,34.9,30.07,North,-999,-999.0,-999.0,38,-99.99,,,-99.99,meteohub,2013-04-21 21:22:00,
2013-04-21 17:27:00,61.2,35.4,30.07,North,-999,-999.0,-999.0,38,-99.99,,,-99.99,meteohub,2013-04-21 21:27:00,
2013-04-21 17:32:00,61.3,35.6,30.07,North,-999,-999.0,-999.0,38,-99.99,,,-99.99,meteohub,2013-04-21 21:32:00,
2013-04-21 17:37:00,60.8,34.3,30.07,North,-999,-999.0,-999.0,37,-99.99,,,-99.99,meteohub,2013-04-21 21:37:00,
2013-04-21 17:42:00,60.3,34.0,30.07,North,-999,-999.0,-999.0,37,-99.99,,,-99.99,meteohub,2013-04-21 21:42:00,
2013-04-21 17:47:00,60.4,34.7,30.07,North,-999,-999.0,-999.0,38,-99.99,,,-99.99,meteohub,2013-04-21 21:47:00,
2013-04-21 17:52:00,60.6,34.9,30.07,North,-999,-999.0,-999.0,38,-99.99,,,-99.99,meteohub,2013-04-21 21:52:00,
2013-04-21 17:57:00,60.8,34.3,30.07,North,-999,-999.0,-999.0,37,-99.99,,,-99.99,meteohub,2013-04-21 21:57:00,
2013-04-21 18:02:00,60.8,34.3,30.07,North,-999,-999.0,-999.0,37,-99.99,,,-99.99,meteohub,2013-04-21 22:02:00,
2013-04-21 18:07:00,60.3,34.0,30.07,North,-999,-999.0,-999.0,37,-99.99,,,-99.99,meteohub,2013-04-21 22:07:00,
2013-04-21 18:12:00,60.1,33.8,30.07,North,-999,-999.0,-999.0,37,-99.99,,,-99.99,meteohub,2013-04-21 22:12:00,
2013-04-21 18:17:00,59.9,33.6,30.07,North,-999,-999.0,-999.0,37,-99.99,,,-99.99,meteohub,2013-04-21 22:17:00,
2013-04-21 18:22:00,59.7,33.4,30.07,North,-999,-999.0,-999.0,37,-99.99,,,-99.99,meteohub,2013-04-21 22:22:00,
2013-04-21 18:27:00,59.4,33.8,30.07,North,-999,-999.0,-999.0,38,-99.99,,,-99.99,meteohub,2013-04-21 22:27:00,
2013-04-21 18:32:00,59.2,33.6,30.07,North,-999,-999.0,-999.0,38,-99.99,,,-99.99,meteohub,2013-04-21 22:32:00,
2013-04-21 18:37:00,59.0,33.4,30.07,North,-999,-999.0,-999.0,38,-99.99,,,-99.99,meteohub,2013-04-21 22:37:00,
2013-04-21 18:42:00,58.8,34.0,30.07,North,-999,-999.0,-999.0,39,-99.99,,,-99.99,meteohub,2013-04-21 22:42:00,
2013-04-21 18:47:00,58.6,34.3,30.07,North,-999,-999.0,-999.0,40,-99.99,,,-99.99,meteohub,2013-04-21 22:47:00,
2013-04-21 18:52:00,58.5,35.4,30.07,North,-999,-999.0,-999.0,42,-99.99,,,-99.99,meteohub,2013-04-21 22:52:00,
2013-04-21 18:57:00,58.5,34.3,30.07,North,-999,-999.0,-999.0,40,-99.99,,,-99.99,meteohub,2013-04-21 22:57:00,
2013-04-21 19:02:00,58.5,34.3,30.07,North,-999,-999.0,-999.0,40,-99.99,,,-99.99,meteohub,2013-04-21 23:02:00,
2013-04-21 19:07:00,58.5,34.3,30.07,North,-999,-999.0,-999.0,40,-99.99,,,-99.99,meteohub,2013-04-21 23:07:00,
2013-04-21 19:12:00,58.5,33.6,30.07,North,-999,-999.0,-999.0,39,-99.99,,,-99.99,meteohub,2013-04-21 23:12:00,
2013-04-21 19:17:00,58.3,34.2,30.07,North,-999,-999.0,-999.0,40,-99.99,,,-99.99,meteohub,2013-04-21 23:17:00,
2013-04-21 19:22:00,58.1,34.0,30.07,North,-999,-999.0,-999.0,40,-99.99,,,-99.99,meteohub,2013-04-21 23:22:00,
2013-04-21 19:27:00,57.9,33.8,30.07,North,-999,-999.0,-999.0,40,-99.99,,,-99.99,meteohub,2013-04-21 23:27:00,
2013-04-21 19:32:00,57.7,34.2,30.07,North,-999,-999.0,-999.0,41,-99.99,,,-99.99,meteohub,2013-04-21 23:32:00,
2013-04-21 19:37:00,57.6,34.2,30.07,North,-999,-999.0,-999.0,41,-99.99,,,-99.99,meteohub,2013-04-21 23:37:00,
2013-04-21 19:42:00,57.4,34.5,30.07,North,-999,-999.0,-999.0,42,-99.99,,,-99.99,meteohub,2013-04-21 23:42:00,
2013-04-21 19:47:00,57.2,34.9,30.07,North,-999,-999.0,-999.0,43,-99.99,,,-99.99,meteohub,2013-04-21 23:47:00,
2013-04-21 19:52:00,56.8,34.7,30.07,North,-999,-999.0,-999.0,43,-99.99,,,-99.99,meteohub,2013-04-21 23:52:00,
2013-04-21 19:57:00,56.8,34.7,30.07,North,-999,-999.0,-999.0,43,-99.99,,,-99.99,meteohub,2013-04-21 23:57:00,
2013-04-21 20:02:00,56.7,35.1,30.07,North,-999,-999.0,-999.0,44,-99.99,,,-99.99,meteohub,2013-04-22 00:02:00,
2013-04-21 20:07:00,56.3,34.7,30.07,North,-999,-999.0,-999.0,44,-99.99,,,-99.99,meteohub,2013-04-22 00:07:00,
2013-04-21 20:12:00,56.1,34.5,30.07,North,-999,-999.0,-999.0,44,-99.99,,,-99.99,meteohub,2013-04-22 00:12:00,
2013-04-21 20:17:00,55.9,33.8,30.07,North,-999,-999.0,-999.0,43,-99.99,,,-99.99,meteohub,2013-04-22 00:17:00,
2013-04-21 20:22:00,55.9,34.3,30.07,North,-999,-999.0,-999.0,44,-99.99,,,-99.99,meteohub,2013-04-22 00:22:00,
2013-04-21 20:27:00,55.8,34.2,30.07,North,-999,-999.0,-999.0,44,-99.99,,,-99.99,meteohub,2013-04-22 00:27:00,
2013-04-21 20:32:00,55.6,34.0,30.07,North,-999,-999.0,-999.0,44,-99.99,,,-99.99,meteohub,2013-04-22 00:32:00,
2013-04-21 20:37:00,55.4,34.5,30.10,North,-999,-999.0,-999.0,45,-99.99,,,-99.99,meteohub,2013-04-22 00:37:00,
2013-04-21 20:42:00,55.2,35.4,30.10,North,-999,-999.0,-999.0,47,-99.99,,,-99.99,meteohub,2013-04-22 00:42:00,
2013-04-21 20:47:00,54.9,35.1,30.10,North,-999,-999.0,-999.0,47,-99.99,,,-99.99,meteohub,2013-04-22 00:47:00,
2013-04-21 20:52:00,54.7,34.9,30.10,North,-999,-999.0,-999.0,47,-99.99,,,-99.99,meteohub,2013-04-22 00:52:00,
2013-04-21 20:57:00,54.5,34.7,30.10,North,-999,-999.0,-999.0,47,-99.99,,,-99.99,meteohub,2013-04-22 00:57:00,
2013-04-21 21:02:00,54.1,34.3,30.10,North,-999,-999.0,-999.0,47,-99.99,,,-99.99,meteohub,2013-04-22 01:02:00,
2013-04-21 21:07:00,54.0,34.2,30.10,North,-999,-999.0,-999.0,47,-99.99,,,-99.99,meteohub,2013-04-22 01:07:00,
2013-04-21 21:12:00,54.0,34.7,30.10,North,-999,-999.0,-999.0,48,-99.99,,,-99.99,meteohub,2013-04-22 01:12:00,
2013-04-21 21:17:00,53.6,34.3,30.10,North,-999,-999.0,-999.0,48,-99.99,,,-99.99,meteohub,2013-04-22 01:17:00,
2013-04-21 21:22:00,53.2,34.5,30.10,North,-999,-999.0,-999.0,49,-99.99,,,-99.99,meteohub,2013-04-22 01:22:00,
2013-04-21 21:27:00,53.2,34.2,30.10,North,-999,-999.0,-999.0,48,-99.99,,,-99.99,meteohub,2013-04-22 01:27:00,
2013-04-21 21:32:00,53.2,34.5,30.10,North,-999,-999.0,-999.0,49,-99.99,,,-99.99,meteohub,2013-04-22 01:32:00,
2013-04-21 21:37:00,52.9,34.7,30.13,North,-999,-999.0,-999.0,50,-99.99,,,-99.99,meteohub,2013-04-22 01:37:00,
2013-04-21 21:42:00,52.9,34.3,30.13,North,-999,-999.0,-999.0,49,-99.99,,,-99.99,meteohub,2013-04-22 01:42:00,
2013-04-21 21:47:00,52.9,34.3,30.13,North,-999,-999.0,-999.0,49,-99.99,,,-99.99,meteohub,2013-04-22 01:47:00,
2013-04-21 21:52:00,52.9,34.3,30.13,North,-999,-999.0,-999.0,49,-99.99,,,-99.99,meteohub,2013-04-22 01:52:00,
2013-04-21 21:57:00,52.7,34.2,30.13,North,-999,-999.0,-999.0,49,-99.99,,,-99.99,meteohub,2013-04-22 01:57:00,
2013-04-21 22:02:00,52.7,34.2,30.13,North,-999,-999.0,-999.0,49,-99.99,,,-99.99,meteohub,2013-04-22 02:02:00,
2013-04-21 22:07:00,52.5,34.0,30.13,North,-999,-999.0,-999.0,49,-99.99,,,-99.99,meteohub,2013-04-22 02:07:00,
2013-04-21 22:12:00,52.5,34.0,30.13,North,-999,-999.0,-999.0,49,-99.99,,,-99.99,meteohub,2013-04-22 02:12:00,
2013-04-21 22:17:00,52.3,33.8,30.13,North,-999,-999.0,-999.0,49,-99.99,,,-99.99,meteohub,2013-04-22 02:17:00,
2013-04-21 22:22:00,52.2,33.6,30.13,North,-999,-999.0,-999.0,49,-99.99,,,-99.99,meteohub,2013-04-22 02:22:00,
2013-04-21 22:27:00,52.2,33.6,30.13,North,-999,-999.0,-999.0,49,-99.99,,,-99.99,meteohub,2013-04-22 02:27:00,
2013-04-21 22:32:00,52.0,33.4,30.13,North,-999,-999.0,-999.0,49,-99.99,,,-99.99,meteohub,2013-04-22 02:32:00,
2013-04-21 22:37:00,51.8,32.7,30.13,North,-999,-999.0,-999.0,48,-99.99,,,-99.99,meteohub,2013-04-22 02:37:00,
2013-04-21 22:42:00,51.8,32.7,30.13,North,-999,-999.0,-999.0,48,-99.99,,,-99.99,meteohub,2013-04-22 02:42:00,
2013-04-21 22:47:00,51.6,33.1,30.13,North,-999,-999.0,-999.0,49,-99.99,,,-99.99,meteohub,2013-04-22 02:47:00,
2013-04-21 22:52:00,51.4,32.9,30.13,North,-999,-999.0,-999.0,49,-99.99,,,-99.99,meteohub,2013-04-22 02:52:00,
2013-04-21 22:57:00,51.4,32.9,30.13,North,-999,-999.0,-999.0,49,-99.99,,,-99.99,meteohub,2013-04-22 02:57:00,
2013-04-21 23:02:00,51.3,32.7,30.13,North,-999,-999.0,-999.0,49,-99.99,,,-99.99,meteohub,2013-04-22 03:02:00,
2013-04-21 23:07:00,51.1,32.5,30.13,North,-999,-999.0,-999.0,49,-99.99,,,-99.99,meteohub,2013-04-22 03:07:00,
2013-04-21 23:12:00,50.9,32.5,30.13,North,-999,-999.0,-999.0,49,-99.99,,,-99.99,meteohub,2013-04-22 03:12:00,
2013-04-21 23:17:00,50.7,32.4,30.13,North,-999,-999.0,-999.0,49,-99.99,,,-99.99,meteohub,2013-04-22 03:17:00,
2013-04-21 23:22:00,50.5,32.2,30.10,North,-999,-999.0,-999.0,49,-99.99,,,-99.99,meteohub,2013-04-22 03:22:00,
2013-04-21 23:27:00,50.4,32.5,30.10,North,-999,-999.0,-999.0,50,-99.99,,,-99.99,meteohub,2013-04-22 03:27:00,
2013-04-21 23:32:00,50.2,32.4,30.10,North,-999,-999.0,-999.0,50,-99.99,,,-99.99,meteohub,2013-04-22 03:32:00,
2013-04-21 23:37:00,50.0,32.2,30.10,North,-999,-999.0,-999.0,50,-99.99,,,-99.99,meteohub,2013-04-22 03:37:00,
2013-04-21 23:42:00,49.8,32.5,30.10,North,-999,-999.0,-999.0,51,-99.99,,,-99.99,meteohub,2013-04-22 03:42:00,
2013-04-21 23:47:00,49.6,32.7,30.10,North,-999,-999.0,-999.0,52,-99.99,,,-99.99,meteohub,2013-04-22 03:47:00,
2013-04-21 23:52:00,49.5,32.2,30.13,North,-999,-999.0,-999.0,51,-99.99,,,-99.99,meteohub,2013-04-22 03:52:00,
2013-04-21 23:57:00,49.3,32.4,30.13,North,-999,-999.0,-999.0,52,-99.99,,,-99.99,meteohub,2013-04-22 03:57:00,